createdAt,value
2022-10-06T00:01:41.098Z,100980.34
2022-10-06T00:04:08.218Z,100969.75
2022-10-06T00:06:34.849Z,100969.81
2022-10-06T00:09:01.615Z,100968.22
2022-10-06T00:11:28.623Z,100967.75
2022-10-06T00:13:56.378Z,100969.81
2022-10-06T00:16:23.575Z,100969.50
2022-10-06T00:18:50.847Z,100972.84
2022-10-06T00:21:17.855Z,100962.00
2022-10-06T00:23:44.627Z,100959.69
2022-10-06T00:26:16.890Z,100964.22
2022-10-06T00:28:46.133Z,100961.69
2022-10-06T00:31:13.403Z,100960.44
2022-10-06T00:33:40.246Z,100955.22
2022-10-06T00:36:07.575Z,100957.91
2022-10-06T00:38:34.780Z,100959.69
2022-10-06T00:41:01.510Z,100955.06
2022-10-06T00:43:46.619Z,100963.63
2022-10-06T00:46:16.099Z,100955.87
2022-10-06T00:48:43.055Z,100958.53
2022-10-06T00:51:09.891Z,100962.69
2022-10-06T00:53:36.877Z,100958.84
2022-10-06T00:56:03.668Z,100957.56
2022-10-06T00:58:31.865Z,100951.41
2022-10-06T01:00:58.992Z,100959.34
2022-10-06T01:03:34.237Z,100958.25
2022-10-06T01:06:02.202Z,100959.84
2022-10-06T01:08:29.468Z,100951.25
2022-10-06T01:10:56.479Z,100956.00
2022-10-06T01:13:23.503Z,100954.38
2022-10-06T01:15:58.585Z,100958.72
2022-10-06T01:18:27.146Z,100959.47
2022-10-06T01:21:03.619Z,100953.84
2022-10-06T01:23:31.291Z,100954.03
2022-10-06T01:25:58.595Z,100959.94
2022-10-06T01:28:25.371Z,100961.81
2022-10-06T01:30:54.406Z,100952.84
2022-10-06T01:33:21.826Z,100954.44
2022-10-06T01:35:50.290Z,100960.47
2022-10-06T01:38:17.545Z,100963.38
2022-10-06T01:40:46.234Z,100960.81
2022-10-06T01:43:13.030Z,100961.66
2022-10-06T01:45:42.269Z,100962.63
2022-10-06T01:48:09.316Z,100967.31
2022-10-06T01:50:36.460Z,100971.75
2022-10-06T01:53:03.482Z,100976.13
2022-10-06T01:55:31.288Z,100971.81
2022-10-06T01:57:58.983Z,100980.06
2022-10-06T02:00:26.113Z,100971.12
2022-10-06T02:02:53.614Z,100975.66
2022-10-06T02:05:20.472Z,100976.72
2022-10-06T02:07:47.575Z,100980.31
2022-10-06T02:10:15.263Z,100979.97
2022-10-06T02:12:43.385Z,100981.75
2022-10-06T02:15:13.221Z,100977.75
2022-10-06T02:17:40.343Z,100977.06
2022-10-06T02:20:07.302Z,100989.28
2022-10-06T02:22:37.601Z,100986.75
2022-10-06T02:25:04.549Z,100982.50
2022-10-06T02:27:31.308Z,100986.06
2022-10-06T02:29:58.799Z,100984.97
2022-10-06T02:32:31.965Z,100998.91
2022-10-06T02:35:00.298Z,100989.56
2022-10-06T02:37:27.144Z,100999.13
2022-10-06T02:39:53.937Z,100987.88
2022-10-06T02:42:21.172Z,100990.53
2022-10-06T02:44:49.343Z,100983.22
2022-10-06T02:47:16.751Z,100984.38
2022-10-06T02:49:43.949Z,100993.53
2022-10-06T02:52:11.192Z,100993.44
2022-10-06T02:54:37.948Z,100984.66
2022-10-06T02:57:05.063Z,100987.50
2022-10-06T02:59:31.833Z,100989.34
2022-10-06T03:01:58.742Z,100991.47
2022-10-06T03:04:25.865Z,100993.81
2022-10-06T03:06:52.688Z,100997.38
2022-10-06T03:09:19.596Z,100992.53
2022-10-06T03:11:46.549Z,100997.91
2022-10-06T03:14:16.605Z,100994.06
2022-10-06T03:16:47.494Z,100991.03
2022-10-06T03:19:14.571Z,100992.50
2022-10-06T03:21:42.311Z,100997.66
2022-10-06T03:24:10.502Z,101006.44
2022-10-06T03:26:38.462Z,101005.84
2022-10-06T03:29:10.481Z,101003.41
2022-10-06T03:31:40.078Z,100999.63
2022-10-06T03:34:06.935Z,101006.44
2022-10-06T03:36:34.016Z,101006.44
2022-10-06T03:39:01.640Z,101004.06
2022-10-06T03:41:29.423Z,100998.69
2022-10-06T03:43:57.018Z,100997.28
2022-10-06T03:46:25.081Z,101003.81
2022-10-06T03:48:52.457Z,100996.59
2022-10-06T03:51:23.578Z,100998.94
2022-10-06T03:53:51.639Z,100994.84
2022-10-06T03:56:20.683Z,100993.81
2022-10-06T03:58:54.492Z,100998.34
2022-10-06T04:01:26.210Z,101006.75
2022-10-06T04:03:55.325Z,101000.38
2022-10-06T04:06:22.394Z,100999.34
2022-10-06T04:08:49.788Z,101004.72
2022-10-06T04:11:17.962Z,101007.88
2022-10-06T04:13:45.277Z,101013.28
2022-10-06T04:16:13.339Z,101012.03
2022-10-06T04:18:40.786Z,101012.09
2022-10-06T04:21:07.814Z,101017.03
2022-10-06T04:23:36.518Z,101018.16
2022-10-06T04:26:06.366Z,101016.13
2022-10-06T04:28:33.639Z,101015.47
2022-10-06T04:31:01.008Z,101010.59
2022-10-06T04:33:28.378Z,101016.41
2022-10-06T04:35:58.684Z,101014.84
2022-10-06T04:38:25.732Z,101018.56
2022-10-06T04:40:53.543Z,101018.81
2022-10-06T04:43:20.441Z,101013.81
2022-10-06T04:45:47.228Z,101013.37
2022-10-06T04:48:14.381Z,101004.72
2022-10-06T04:50:41.071Z,101009.56
2022-10-06T04:53:07.877Z,101008.59
2022-10-06T04:55:34.850Z,101010.28
2022-10-06T04:58:02.228Z,101010.34
2022-10-06T05:00:28.977Z,101013.19
2022-10-06T05:02:56.296Z,101015.47
2022-10-06T05:05:23.211Z,101013.47
2022-10-06T05:07:50.301Z,101007.47
2022-10-06T05:10:17.468Z,101008.31
2022-10-06T05:12:44.526Z,101012.03
2022-10-06T05:15:11.360Z,101016.94
2022-10-06T05:17:38.371Z,101010.09
2022-10-06T05:20:05.444Z,101010.69
2022-10-06T05:22:34.407Z,101014.94
2022-10-06T05:25:02.015Z,101017.69
2022-10-06T05:27:28.786Z,101019.78
2022-10-06T05:29:55.628Z,101019.06
2022-10-06T05:32:22.609Z,101018.47
2022-10-06T05:34:49.256Z,101019.47
2022-10-06T05:37:16.001Z,101021.50
2022-10-06T05:39:43.397Z,101024.28
2022-10-06T05:42:10.101Z,101015.88
2022-10-06T05:44:37.260Z,101019.63
2022-10-06T05:47:04.814Z,101021.00
2022-10-06T05:49:31.748Z,101024.75
2022-10-06T05:51:58.592Z,101017.88
2022-10-06T05:54:25.801Z,101027.66
2022-10-06T05:56:52.890Z,101036.84
2022-10-06T05:59:19.590Z,101027.59
2022-10-06T06:01:47.213Z,101025.69
2022-10-06T06:04:14.832Z,101029.66
2022-10-06T06:06:42.815Z,101029.84
2022-10-06T06:09:10.936Z,101039.16
2022-10-06T06:11:42.082Z,101041.94
2022-10-06T06:14:09.668Z,101045.59
2022-10-06T06:16:39.059Z,101049.03
2022-10-06T06:19:07.024Z,101043.53
2022-10-06T06:21:35.735Z,101049.88
2022-10-06T06:24:03.036Z,101058.81
2022-10-06T06:26:31.729Z,101062.25
2022-10-06T06:29:02.665Z,101068.47
2022-10-06T06:31:37.586Z,101068.56
2022-10-06T06:34:06.785Z,101068.56
2022-10-06T06:36:35.981Z,101069.66
2022-10-06T06:39:05.585Z,101078.13
2022-10-06T06:41:33.736Z,101082.22
2022-10-06T06:44:01.222Z,101085.72
2022-10-06T06:46:32.014Z,101084.75
2022-10-06T06:49:04.646Z,101079.84
2022-10-06T06:51:33.254Z,101081.22
2022-10-06T06:54:02.382Z,101084.63
2022-10-06T06:56:35.081Z,101093.66
2022-10-06T06:59:04.029Z,101093.53
2022-10-06T07:01:31.374Z,101090.25
2022-10-06T07:04:01.122Z,101087.72
2022-10-06T07:06:29.811Z,101094.44
2022-10-06T07:08:57.897Z,101095.06
2022-10-06T07:11:29.683Z,101096.84
2022-10-06T07:13:58.505Z,101106.28
2022-10-06T07:16:44.346Z,101102.28
2022-10-06T07:19:30.420Z,101109.47
2022-10-06T07:22:23.070Z,101098.56
2022-10-06T07:25:08.208Z,101104.34
2022-10-06T07:27:36.333Z,101104.72
2022-10-06T07:30:07.361Z,101103.38
2022-10-06T07:32:34.251Z,101108.75
2022-10-06T07:35:01.106Z,101108.75
2022-10-06T07:37:29.115Z,101108.91
2022-10-06T07:39:56.826Z,101102.00
2022-10-06T07:42:23.947Z,101104.69
2022-10-06T07:45:09.802Z,101102.09
2022-10-06T07:47:40.874Z,101105.56
2022-10-06T07:50:08.627Z,101104.72
2022-10-06T07:52:39.313Z,101110.84
2022-10-06T07:55:06.971Z,101109.06
2022-10-06T07:57:35.339Z,101111.69
2022-10-06T08:00:05.545Z,101116.03
2022-10-06T08:02:39.941Z,101108.97
2022-10-06T08:05:08.281Z,101112.38
2022-10-06T08:07:35.284Z,101114.06
2022-10-06T08:10:02.020Z,101113.22
2022-10-06T08:12:34.896Z,101114.03
2022-10-06T08:15:06.940Z,101112.25
2022-10-06T08:17:36.750Z,101108.72
2022-10-06T08:20:07.371Z,101114.06
2022-10-06T08:22:34.496Z,101115.91
2022-10-06T08:25:06.161Z,101114.19
2022-10-06T08:27:34.953Z,101114.03
2022-10-06T08:30:02.234Z,101114.06
2022-10-06T08:32:28.959Z,101109.44
2022-10-06T08:34:55.997Z,101115.34
2022-10-06T08:37:27.372Z,101118.94
2022-10-06T08:39:54.466Z,101112.78
2022-10-06T08:42:41.420Z,101112.81
2022-10-06T08:45:21.844Z,101113.66
2022-10-06T08:47:56.493Z,101116.75
2022-10-06T08:50:24.356Z,101118.69
2022-10-06T08:52:51.166Z,101119.47
2022-10-06T08:55:18.374Z,101114.84
2022-10-06T08:58:00.637Z,101118.44
2022-10-06T09:00:30.132Z,101116.81
2022-10-06T09:02:57.603Z,101116.47
2022-10-06T09:05:29.831Z,101108.37
2022-10-06T09:08:07.595Z,101108.03
2022-10-06T09:10:44.798Z,101113.31
2022-10-06T09:13:12.680Z,101103.34
2022-10-06T09:15:48.217Z,101109.09
2022-10-06T09:18:49.850Z,101109.91
2022-10-06T09:21:33.182Z,101109.66
2022-10-06T09:24:03.835Z,101112.31
2022-10-06T09:26:31.405Z,101115.94
2022-10-06T09:28:58.196Z,101114.38
2022-10-06T09:31:28.778Z,101113.28
2022-10-06T09:34:18.820Z,101114.94
2022-10-06T09:37:01.937Z,101117.38
2022-10-06T09:39:33.196Z,101115.28
2022-10-06T09:42:04.264Z,101117.81
2022-10-06T09:44:40.655Z,101119.16
2022-10-06T09:47:22.508Z,101115.25
2022-10-06T09:50:10.080Z,101120.16
2022-10-06T09:52:36.783Z,101119.91
2022-10-06T09:55:07.147Z,101124.78
2022-10-06T09:57:33.931Z,101117.94
2022-10-06T10:00:00.733Z,101124.09
2022-10-06T10:02:33.693Z,101130.59
2022-10-06T10:05:02.483Z,101127.69
2022-10-06T10:07:30.108Z,101123.19
2022-10-06T10:10:11.216Z,101121.75
2022-10-06T10:12:38.351Z,101118.28
2022-10-06T10:15:23.587Z,101121.06
2022-10-06T10:17:55.464Z,101117.44
2022-10-06T10:20:25.143Z,101113.25
2022-10-06T10:22:55.815Z,101116.50
2022-10-06T10:25:34.571Z,101123.88
2022-10-06T10:28:07.041Z,101107.53
2022-10-06T10:30:35.728Z,101119.44
2022-10-06T10:35:51.471Z,101108.41
2022-10-06T10:38:22.065Z,101104.78
2022-10-06T10:40:50.519Z,101109.59
2022-10-06T10:43:25.649Z,101104.63
2022-10-06T10:45:57.233Z,101101.50
2022-10-06T10:48:32.513Z,101112.97
2022-10-06T10:51:07.819Z,101104.81
2022-10-06T10:53:43.780Z,101108.63
2022-10-06T10:56:11.946Z,101106.81
2022-10-06T10:58:39.123Z,101103.94
2022-10-06T11:01:12.033Z,101101.31
2022-10-06T11:03:39.022Z,101106.69
2022-10-06T11:06:28.046Z,101110.59
2022-10-06T11:08:58.630Z,101113.25
2022-10-06T11:11:28.020Z,101107.97
2022-10-06T11:13:55.010Z,101108.09
2022-10-06T11:16:31.930Z,101111.59
2022-10-06T11:19:18.508Z,101111.28
2022-10-06T11:21:55.215Z,101101.78
2022-10-06T11:24:25.045Z,101103.19
2022-10-06T11:26:54.526Z,101101.09
2022-10-06T11:29:40.604Z,101106.59
2022-10-06T11:32:13.125Z,101095.25
2022-10-06T11:34:39.780Z,101098.69
2022-10-06T11:37:25.491Z,101087.81
2022-10-06T11:40:11.520Z,101083.28
2022-10-06T11:42:40.758Z,101083.47
2022-10-06T11:45:14.883Z,101078.72
2022-10-06T11:47:41.656Z,101076.91
2022-10-06T11:50:37.942Z,101075.34
2022-10-06T11:53:23.004Z,101078.75
2022-10-06T11:56:07.703Z,101075.53
2022-10-06T11:59:01.062Z,101081.66
2022-10-06T12:01:30.844Z,101088.19
2022-10-06T12:04:10.049Z,101078.09
2022-10-06T12:06:45.760Z,101074.66
2022-10-06T12:09:24.817Z,101079.66
2022-10-06T12:12:01.337Z,101075.28
2022-10-06T12:17:19.333Z,101072.56
2022-10-06T12:19:46.995Z,101065.38
2022-10-06T12:22:19.695Z,101069.12
2022-10-06T12:24:56.436Z,101067.16
2022-10-06T12:27:42.004Z,101063.50
2022-10-06T12:30:18.831Z,101063.34
2022-10-06T12:32:53.383Z,101067.41
2022-10-06T12:35:24.854Z,101064.00
2022-10-06T12:37:56.519Z,101057.87
2022-10-06T12:40:46.705Z,101052.44
2022-10-06T12:43:19.858Z,101053.87
2022-10-06T12:45:58.100Z,101054.06
2022-10-06T12:48:27.851Z,101054.16
2022-10-06T12:51:07.103Z,101053.56
2022-10-06T12:54:02.958Z,101043.78
2022-10-06T12:56:36.760Z,101046.31
2022-10-06T12:59:30.258Z,101046.97
2022-10-06T13:02:01.109Z,101045.53
2022-10-06T13:04:32.553Z,101038.31
2022-10-06T13:06:59.557Z,101027.59
2022-10-06T13:09:26.931Z,101028.66
2022-10-06T13:11:54.809Z,101027.28
2022-10-06T13:14:23.290Z,101036.22
2022-10-06T13:16:50.077Z,101039.31
2022-10-06T13:19:22.769Z,101038.47
2022-10-06T13:21:49.829Z,101027.94
2022-10-06T13:24:19.761Z,101030.25
2022-10-06T13:26:48.681Z,101029.28
2022-10-06T13:29:23.025Z,101032.47
2022-10-06T13:31:52.923Z,101028.47
2022-10-06T13:34:45.055Z,101019.59
2022-10-06T13:39:40.717Z,101019.91
2022-10-06T13:42:10.939Z,101020.63
2022-10-06T13:44:39.178Z,101017.38
2022-10-06T13:47:19.402Z,101014.88
2022-10-06T13:49:47.132Z,101012.94
2022-10-06T13:52:24.236Z,101022.75
2022-10-06T13:54:52.409Z,101027.59
2022-10-06T13:57:35.026Z,101027.47
2022-10-06T14:00:02.853Z,101018.47
2022-10-06T14:02:37.016Z,101027.69
2022-10-06T14:05:22.973Z,101022.31
2022-10-06T14:07:50.043Z,101024.03
2022-10-06T14:10:17.066Z,101026.34
2022-10-06T14:12:46.935Z,101025.94
2022-10-06T14:15:16.566Z,101036.63
2022-10-06T14:17:43.598Z,101039.72
2022-10-06T14:20:29.249Z,101033.63
2022-10-06T14:22:56.179Z,101041.53
2022-10-06T14:25:22.890Z,101044.28
2022-10-06T14:27:49.652Z,101042.66
2022-10-06T14:30:16.928Z,101045.00
2022-10-06T14:32:43.599Z,101048.78
2022-10-06T14:35:10.981Z,101048.16
2022-10-06T14:37:38.046Z,101051.50
2022-10-06T14:40:08.850Z,101049.66
2022-10-06T14:42:38.704Z,101061.31
2022-10-06T14:45:05.617Z,101054.19
2022-10-06T14:47:32.271Z,101053.34
2022-10-06T14:49:59.290Z,101055.97
2022-10-06T14:52:26.059Z,101064.81
2022-10-06T14:54:52.720Z,101056.38
2022-10-06T14:57:20.966Z,101065.81
2022-10-06T14:59:47.719Z,101067.47
2022-10-06T15:02:14.542Z,101060.56
2022-10-06T15:04:41.486Z,101066.31
2022-10-06T15:07:26.989Z,101068.56
2022-10-06T15:09:53.969Z,101071.37
2022-10-06T15:12:20.744Z,101072.88
2022-10-06T15:14:47.387Z,101066.78
2022-10-06T15:17:14.351Z,101070.63
2022-10-06T15:19:41.146Z,101072.34
2022-10-06T15:22:09.007Z,101076.78
2022-10-06T15:24:35.966Z,101076.78
2022-10-06T15:27:24.692Z,101083.94
2022-10-06T15:29:52.139Z,101088.37
2022-10-06T15:32:18.799Z,101091.16
2022-10-06T15:34:45.471Z,101092.06
2022-10-06T15:37:12.455Z,101086.69
2022-10-06T15:39:39.136Z,101096.47
2022-10-06T15:42:06.645Z,101098.31
2022-10-06T15:44:34.742Z,101093.03
2022-10-06T15:47:01.815Z,101098.41
2022-10-06T15:49:33.083Z,101098.28
2022-10-06T15:52:02.723Z,101103.59
2022-10-06T15:54:30.782Z,101103.62
2022-10-06T15:56:58.084Z,101106.28
2022-10-06T15:59:25.717Z,101107.22
2022-10-06T16:01:57.551Z,101115.25
2022-10-06T16:04:40.399Z,101119.62
2022-10-06T16:07:07.675Z,101120.56
2022-10-06T16:09:39.336Z,101119.66
2022-10-06T16:12:09.291Z,101121.44
2022-10-06T16:14:36.258Z,101125.06
2022-10-06T16:17:04.216Z,101127.91
2022-10-06T16:19:31.398Z,101128.72
2022-10-06T16:21:59.245Z,101133.09
2022-10-06T16:24:26.300Z,101131.34
2022-10-06T16:26:53.234Z,101135.84
2022-10-06T16:29:21.044Z,101129.66
2022-10-06T16:31:48.565Z,101128.75
2022-10-06T16:34:15.514Z,101139.50
2022-10-06T16:36:42.663Z,101142.97
2022-10-06T16:39:16.282Z,101149.97
2022-10-06T16:41:43.399Z,101142.91
2022-10-06T16:44:10.339Z,101148.34
2022-10-06T16:46:37.079Z,101156.28
2022-10-06T16:49:04.087Z,101153.66
2022-10-06T16:51:31.779Z,101156.34
2022-10-06T16:54:18.762Z,101154.56
2022-10-06T16:56:47.471Z,101156.41
2022-10-06T16:59:15.797Z,101159.91
2022-10-06T17:01:42.641Z,101151.97
2022-10-06T17:04:09.747Z,101157.34
2022-10-06T17:06:39.248Z,101163.53
2022-10-06T17:09:08.230Z,101161.75
2022-10-06T17:11:35.801Z,101160.00
2022-10-06T17:14:03.035Z,101168.00
2022-10-06T17:16:31.211Z,101165.41
2022-10-06T17:18:58.351Z,101168.94
2022-10-06T17:21:46.114Z,101171.56
2022-10-06T17:24:12.126Z,101173.28
2022-10-06T17:26:39.798Z,101182.09
2022-10-06T17:29:08.002Z,101187.38
2022-10-06T17:31:38.979Z,101186.50
2022-10-06T17:34:20.414Z,101185.69
2022-10-06T17:36:49.045Z,101184.91
2022-10-06T17:39:16.834Z,101182.31
2022-10-06T17:41:47.190Z,101187.56
2022-10-06T17:44:21.359Z,101182.34
2022-10-06T17:46:49.033Z,101175.31
2022-10-06T17:49:16.399Z,101171.88
2022-10-06T17:51:45.413Z,101171.94
2022-10-06T17:54:16.164Z,101171.12
2022-10-06T17:56:43.517Z,101172.00
2022-10-06T17:59:14.541Z,101168.56
2022-10-06T18:01:42.110Z,101175.53
2022-10-06T18:04:09.112Z,101170.28
2022-10-06T18:06:36.138Z,101175.53
2022-10-06T18:09:03.467Z,101167.66
2022-10-06T18:11:35.830Z,101166.81
2022-10-06T18:14:04.304Z,101166.78
2022-10-06T18:16:32.510Z,101167.69
2022-10-06T18:19:01.654Z,101171.22
2022-10-06T18:21:28.921Z,101177.38
2022-10-06T18:23:56.886Z,101180.91
2022-10-06T18:26:23.844Z,101180.91
2022-10-06T18:28:50.673Z,101172.13
2022-10-06T18:31:18.474Z,101178.28
2022-10-06T18:36:33.673Z,101170.34
2022-10-06T18:39:01.307Z,101176.53
2022-10-06T18:41:28.645Z,101175.66
2022-10-06T18:43:55.720Z,101189.66
2022-10-06T18:46:41.194Z,101189.66
2022-10-06T18:49:11.413Z,101196.66
2022-10-06T18:51:40.115Z,101199.28
2022-10-06T18:54:08.565Z,101205.38
2022-10-06T18:56:36.346Z,101211.50
2022-10-06T18:59:05.232Z,101207.13
2022-10-06T19:01:31.976Z,101201.84
2022-10-06T19:04:01.448Z,101201.03
2022-10-06T19:06:28.840Z,101199.25
2022-10-06T19:09:01.144Z,101205.34
2022-10-06T19:11:47.852Z,101207.97
2022-10-06T19:14:15.969Z,101197.47
2022-10-06T19:16:43.454Z,101197.41
2022-10-06T19:19:14.664Z,101191.31
2022-10-06T19:21:42.630Z,101198.31
2022-10-06T19:24:11.591Z,101200.06
2022-10-06T19:26:42.484Z,101199.16
2022-10-06T19:29:13.806Z,101206.13
2022-10-06T19:31:42.575Z,101207.03
2022-10-06T19:34:11.759Z,101215.72
2022-10-06T19:36:40.735Z,101220.06
2022-10-06T19:39:11.903Z,101218.28
2022-10-06T19:41:57.961Z,101220.13
2022-10-06T19:44:25.142Z,101217.50
2022-10-06T19:46:52.193Z,101220.97
2022-10-06T19:49:18.956Z,101224.41
2022-10-06T19:51:47.785Z,101214.81
2022-10-06T19:54:15.183Z,101217.47
2022-10-06T19:56:42.075Z,101222.69
2022-10-06T19:59:12.152Z,101225.34
2022-10-06T20:01:41.469Z,101236.69
2022-10-06T20:04:09.120Z,101235.78
2022-10-06T20:06:37.304Z,101235.62
2022-10-06T20:09:07.620Z,101233.00
2022-10-06T20:11:38.440Z,101233.84
2022-10-06T20:14:10.624Z,101237.44
2022-10-06T20:16:40.141Z,101241.34
2022-10-06T20:19:08.151Z,101235.50
2022-10-06T20:21:35.495Z,101238.25
2022-10-06T20:24:04.103Z,101232.09
2022-10-06T20:26:32.174Z,101238.13
2022-10-06T20:28:59.730Z,101232.12
2022-10-06T20:31:27.994Z,101233.00
2022-10-06T20:33:57.861Z,101224.22
2022-10-06T20:36:25.004Z,101224.22
2022-10-06T20:39:10.494Z,101237.31
2022-10-06T20:41:37.379Z,101246.94
2022-10-06T20:44:04.708Z,101252.03
2022-10-06T20:46:32.260Z,101247.72
2022-10-06T20:49:00.640Z,101257.22
2022-10-06T20:51:27.879Z,101259.00
2022-10-06T20:53:56.976Z,101250.28
2022-10-06T20:56:24.613Z,101252.84
2022-10-06T20:58:52.075Z,101250.22
2022-10-06T21:01:19.555Z,101252.66
2022-10-06T21:03:47.392Z,101254.56
2022-10-06T21:06:15.365Z,101259.72
2022-10-06T21:08:44.126Z,101256.19
2022-10-06T21:11:17.242Z,101255.25
2022-10-06T21:14:10.601Z,101250.91
2022-10-06T21:16:38.533Z,101247.53
2022-10-06T21:19:08.246Z,101256.94
2022-10-06T21:21:35.805Z,101249.09
2022-10-06T21:24:02.986Z,101256.81
2022-10-06T21:26:30.159Z,101251.75
2022-10-06T21:28:57.099Z,101246.50
2022-10-06T21:31:24.900Z,101249.69
2022-10-06T21:33:52.630Z,101251.50
2022-10-06T21:36:22.620Z,101254.09
2022-10-06T21:38:50.552Z,101244.56
2022-10-06T21:41:31.843Z,101243.81
2022-10-06T21:44:03.108Z,101248.00
2022-10-06T21:46:31.581Z,101250.50
2022-10-06T21:48:58.960Z,101258.44
2022-10-06T21:51:26.513Z,101247.91
2022-10-06T21:53:53.848Z,101246.25
2022-10-06T21:56:21.476Z,101249.66
2022-10-06T21:58:51.540Z,101249.50
2022-10-06T22:01:23.553Z,101252.16
2022-10-06T22:03:50.996Z,101258.62
2022-10-06T22:06:19.582Z,101259.78
2022-10-06T22:08:46.749Z,101257.94
2022-10-06T22:11:15.863Z,101259.97
2022-10-06T22:13:44.433Z,101260.81
2022-10-06T22:16:12.224Z,101254.78
2022-10-06T22:18:39.685Z,101259.69
2022-10-06T22:21:17.151Z,101259.81
2022-10-06T22:23:45.129Z,101257.34
2022-10-06T22:26:13.308Z,101249.34
2022-10-06T22:28:40.400Z,101261.41
2022-10-06T22:31:08.445Z,101263.13
2022-10-06T22:33:35.806Z,101267.53
2022-10-06T22:36:03.072Z,101252.69
2022-10-06T22:38:31.066Z,101245.91
2022-10-06T22:41:01.284Z,101247.37
2022-10-06T22:43:28.390Z,101243.94
2022-10-06T22:45:55.647Z,101245.59
2022-10-06T22:48:22.935Z,101243.63
2022-10-06T22:50:49.974Z,101246.59
2022-10-06T22:53:20.979Z,101249.72
2022-10-06T22:55:47.954Z,101241.88
2022-10-06T22:58:15.194Z,101239.34
2022-10-06T23:00:42.692Z,101238.44
2022-10-06T23:03:09.702Z,101240.34
2022-10-06T23:05:36.982Z,101242.06
2022-10-06T23:08:04.811Z,101232.41
2022-10-06T23:10:32.768Z,101233.28
2022-10-06T23:12:59.736Z,101239.44
2022-10-06T23:15:27.126Z,101238.62
2022-10-06T23:17:53.994Z,101233.78
2022-10-06T23:20:21.126Z,101232.09
2022-10-06T23:22:48.298Z,101226.81
2022-10-06T23:25:15.200Z,101232.75
2022-10-06T23:27:42.245Z,101231.69
2022-10-06T23:30:10.271Z,101224.03
2022-10-06T23:32:37.657Z,101221.19
2022-10-06T23:35:04.771Z,101217.81
2022-10-06T23:37:31.947Z,101222.19
2022-10-06T23:39:58.874Z,101221.41
2022-10-06T23:42:25.776Z,101227.47
2022-10-06T23:44:53.599Z,101221.06
2022-10-06T23:47:20.564Z,101223.44
2022-10-06T23:49:47.461Z,101222.69
2022-10-06T23:52:15.079Z,101222.72
2022-10-06T23:54:42.038Z,101220.25
2022-10-06T23:57:09.494Z,101221.94
2022-10-06T23:59:36.650Z,101222.38
